createdAt,value
2019-04-26T00:00:02.233Z,100329.31
2019-04-26T00:02:48.210Z,100326.55
2019-04-26T00:05:18.507Z,100328.56
2019-04-26T00:07:48.580Z,100324.11
2019-04-26T00:10:37.414Z,100315.91
2019-04-26T00:13:16.156Z,100319.09
2019-04-26T00:16:01.554Z,100319.94
2019-04-26T00:18:31.305Z,100314.07
2019-04-26T00:21:00.985Z,100306.55
2019-04-26T00:23:30.708Z,100301.83
2019-04-26T00:26:00.833Z,100303.09
2019-04-26T00:28:30.883Z,100291.95
2019-04-26T00:31:00.552Z,100297.83
2019-04-26T00:33:30.225Z,100298.99
2019-04-26T00:35:59.912Z,100292.53
2019-04-26T00:38:29.569Z,100297.59
2019-04-26T00:41:00.051Z,100301.45
2019-04-26T00:43:30.093Z,100290.66
2019-04-26T00:46:01.772Z,100292.07
2019-04-26T00:48:32.816Z,100288.22
2019-04-26T00:51:04.139Z,100283.28
2019-04-26T00:53:34.987Z,100282.20
2019-04-26T00:56:06.784Z,100285.23
2019-04-26T00:58:37.383Z,100282.30
2019-04-26T01:01:07.136Z,100281.56
2019-04-26T01:03:37.059Z,100276.98
2019-04-26T01:06:09.133Z,100274.86
2019-04-26T01:08:38.818Z,100274.00
2019-04-26T01:11:08.567Z,100271.16
2019-04-26T01:13:38.223Z,100268.23
2019-04-26T01:16:07.974Z,100271.61
2019-04-26T01:18:37.905Z,100264.81
2019-04-26T01:21:10.496Z,100265.30
2019-04-26T01:23:43.220Z,100272.33
2019-04-26T01:26:23.178Z,100265.05
2019-04-26T01:28:58.102Z,100252.77
2019-04-26T01:31:30.579Z,100251.23
2019-04-26T01:34:00.330Z,100247.02
2019-04-26T01:36:31.432Z,100245.49
2019-04-26T01:39:08.122Z,100247.47
2019-04-26T01:41:46.230Z,100245.25
2019-04-26T01:44:34.342Z,100244.41
2019-04-26T01:47:04.170Z,100245.58
2019-04-26T01:49:34.029Z,100238.55
2019-04-26T01:52:08.944Z,100232.45
2019-04-26T01:54:42.460Z,100236.31
2019-04-26T01:57:12.978Z,100228.89
2019-04-26T01:59:47.252Z,100235.77
2019-04-26T02:02:27.766Z,100227.22
2019-04-26T02:05:00.660Z,100221.69
2019-04-26T02:07:40.969Z,100235.53
2019-04-26T02:10:17.380Z,100225.70
2019-04-26T02:12:49.133Z,100219.27
2019-04-26T02:15:23.021Z,100223.58
2019-04-26T02:17:56.445Z,100220.44
2019-04-26T02:20:53.907Z,100216.30
2019-04-26T02:23:35.029Z,100205.75
2019-04-26T02:26:22.744Z,100208.77
2019-04-26T02:28:52.421Z,100201.62
2019-04-26T02:31:22.736Z,100198.55
2019-04-26T02:33:52.950Z,100210.89
2019-04-26T02:36:23.381Z,100212.26
2019-04-26T02:38:55.897Z,100214.43
2019-04-26T02:41:27.657Z,100209.82
2019-04-26T02:44:00.676Z,100217.16
2019-04-26T02:46:42.281Z,100216.40
2019-04-26T02:49:36.603Z,100213.63
2019-04-26T02:52:14.373Z,100228.19
2019-04-26T02:54:52.506Z,100234.59
2019-04-26T02:57:34.237Z,100244.08
2019-04-26T03:00:08.131Z,100255.33
2019-04-26T03:02:40.223Z,100265.09
2019-04-26T03:05:10.649Z,100257.60
2019-04-26T03:08:02.894Z,100240.16
2019-04-26T03:10:40.260Z,100251.07
2019-04-26T03:13:20.244Z,100258.23
2019-04-26T03:16:10.320Z,100247.25
2019-04-26T03:18:51.435Z,100251.70
2019-04-26T03:21:28.875Z,100253.71
2019-04-26T03:24:19.199Z,100261.46
2019-04-26T03:27:16.140Z,100264.29
2019-04-26T03:30:17.381Z,100265.77
2019-04-26T03:32:54.219Z,100264.64
2019-04-26T03:35:56.025Z,100278.88
2019-04-26T03:38:41.445Z,100270.73
2019-04-26T03:41:44.455Z,100260.60
2019-04-26T03:44:25.783Z,100255.05
2019-04-26T03:47:00.599Z,100240.89
2019-04-26T03:49:54.331Z,100237.58
2019-04-26T03:52:53.150Z,100238.39
2019-04-26T03:56:13.727Z,100245.83
2019-04-26T03:59:07.383Z,100256.86
2019-04-26T04:01:47.540Z,100249.37
2019-04-26T04:04:43.413Z,100251.82
2019-04-26T04:07:16.254Z,100240.36
2019-04-26T04:09:50.831Z,100230.92
2019-04-26T04:12:27.053Z,100223.05
2019-04-26T04:15:12.773Z,100225.78
2019-04-26T04:17:51.199Z,100225.53
2019-04-26T04:20:46.277Z,100228.09
2019-04-26T04:23:27.169Z,100227.42
2019-04-26T04:26:00.177Z,100232.86
2019-04-26T04:28:49.889Z,100235.48
2019-04-26T04:31:29.184Z,100230.91
2019-04-26T04:34:23.900Z,100235.95
2019-04-26T04:36:56.837Z,100244.73
2019-04-26T04:39:35.271Z,100244.36
2019-04-26T04:42:34.380Z,100246.55
2019-04-26T04:45:21.277Z,100243.44
2019-04-26T04:48:20.435Z,100243.20
2019-04-26T04:51:01.241Z,100250.89
2019-04-26T04:53:55.008Z,100252.44
2019-04-26T04:56:55.095Z,100247.29
2019-04-26T04:59:32.024Z,100241.36
2019-04-26T05:02:24.069Z,100244.00
2019-04-26T05:05:16.965Z,100249.20
2019-04-26T05:08:08.007Z,100273.86
2019-04-26T05:10:51.985Z,100275.19
2019-04-26T05:13:32.484Z,100273.77
2019-04-26T05:16:32.939Z,100268.41
2019-04-26T05:19:42.226Z,100258.02
2019-04-26T05:22:26.649Z,100252.72
2019-04-26T05:25:41.007Z,100246.44
2019-04-26T05:28:22.825Z,100238.80
2019-04-26T05:31:14.378Z,100236.98
2019-04-26T05:33:56.851Z,100237.22
2019-04-26T05:36:36.639Z,100234.70
2019-04-26T05:39:40.081Z,100223.11
2019-04-26T05:43:00.837Z,100226.38
2019-04-26T05:46:02.815Z,100237.77
2019-04-26T05:48:55.655Z,100244.34
2019-04-26T05:51:59.997Z,100251.47
2019-04-26T05:54:54.040Z,100259.05
2019-04-26T05:57:58.577Z,100267.23
2019-04-26T06:01:03.778Z,100263.94
2019-04-26T06:04:39.860Z,100265.00
2019-04-26T06:07:32.998Z,100265.42
2019-04-26T06:10:36.229Z,100261.16
2019-04-26T06:13:57.754Z,100267.12
2019-04-26T06:16:57.297Z,100275.81
2019-04-26T06:20:24.770Z,100269.22
2019-04-26T06:23:08.860Z,100283.44
2019-04-26T06:26:05.949Z,100273.95
2019-04-26T06:29:01.903Z,100279.09
2019-04-26T06:31:40.123Z,100284.61
2019-04-26T06:34:18.900Z,100294.50
2019-04-26T06:37:30.158Z,100297.78
2019-04-26T06:40:18.380Z,100303.59
2019-04-26T06:43:15.480Z,100304.16
2019-04-26T06:46:33.102Z,100309.78
2019-04-26T06:49:24.331Z,100321.14
2019-04-26T06:52:02.568Z,100307.86
2019-04-26T06:54:44.990Z,100313.28
2019-04-26T06:58:03.117Z,100312.75
2019-04-26T07:00:47.614Z,100322.23
2019-04-26T07:03:29.575Z,100322.66
2019-04-26T07:06:02.499Z,100324.55
2019-04-26T07:08:57.766Z,100323.12
2019-04-26T07:12:15.173Z,100322.55
2019-04-26T07:15:37.545Z,100318.17
2019-04-26T07:18:55.030Z,100323.98
2019-04-26T07:22:12.756Z,100320.38
2019-04-26T07:25:17.853Z,100318.35
2019-04-26T07:28:05.986Z,100313.88
2019-04-26T07:31:06.625Z,100301.52
2019-04-26T07:34:09.910Z,100306.83
2019-04-26T07:37:16.635Z,100307.77
2019-04-26T07:40:34.382Z,100315.22
2019-04-26T07:43:35.566Z,100310.66
2019-04-26T07:46:27.176Z,100311.02
2019-04-26T07:49:33.392Z,100311.50
2019-04-26T07:52:49.307Z,100312.14
2019-04-26T07:55:37.119Z,100299.13
2019-04-26T07:58:42.844Z,100308.42
2019-04-26T08:01:36.437Z,100299.22
2019-04-26T08:04:11.465Z,100305.09
2019-04-26T08:06:54.819Z,100310.61
2019-04-26T08:09:27.832Z,100326.11
2019-04-26T08:12:06.087Z,100318.91
2019-04-26T08:14:48.006Z,100335.78
2019-04-26T08:17:36.978Z,100326.13
2019-04-26T08:20:23.192Z,100322.12
2019-04-26T08:22:57.722Z,100318.05
2019-04-26T08:25:31.147Z,100312.80
2019-04-26T08:28:03.515Z,100300.23
2019-04-26T08:30:35.536Z,100303.72
2019-04-26T08:33:11.323Z,100295.91
2019-04-26T08:35:44.431Z,100295.44
2019-04-26T08:38:20.469Z,100309.52
2019-04-26T08:40:45.039Z,100298.73
2019-04-26T08:43:33.871Z,100300.02
2019-04-26T08:46:21.671Z,100300.53
2019-04-26T08:49:11.383Z,100299.70
2019-04-26T08:51:42.828Z,100303.68
2019-04-26T08:54:21.239Z,100315.13
2019-04-26T08:56:58.546Z,100323.20
2019-04-26T08:59:31.653Z,100317.41
2019-04-26T09:02:27.655Z,100313.66
2019-04-26T09:05:18.417Z,100317.91
2019-04-26T09:07:53.533Z,100324.77
2019-04-26T09:10:25.008Z,100343.22
2019-04-26T09:12:57.065Z,100353.97
2019-04-26T09:16:01.198Z,100349.66
2019-04-26T09:18:42.348Z,100357.45
2019-04-26T09:21:03.614Z,100354.72
2019-04-26T09:23:57.963Z,100348.72
2019-04-26T09:26:48.455Z,100357.92
2019-04-26T09:29:32.126Z,100358.66
2019-04-26T09:32:09.501Z,100347.31
2019-04-26T09:34:41.237Z,100369.92
2019-04-26T09:37:11.164Z,100357.23
2019-04-26T09:39:42.091Z,100346.59
2019-04-26T09:42:21.278Z,100351.62
2019-04-26T09:44:57.740Z,100354.02
2019-04-26T09:47:31.637Z,100354.28
2019-04-26T09:50:23.075Z,100361.31
2019-04-26T09:52:52.950Z,100355.59
2019-04-26T09:55:34.563Z,100345.04
2019-04-26T09:57:57.101Z,100356.54
2019-04-26T10:00:29.549Z,100355.29
2019-04-26T10:03:00.984Z,100352.59
2019-04-26T10:05:30.732Z,100344.09
2019-04-26T10:08:00.399Z,100356.05
2019-04-26T10:10:35.224Z,100343.82
2019-04-26T10:13:21.485Z,100341.84
2019-04-26T10:16:02.484Z,100346.30
2019-04-26T10:18:29.992Z,100357.66
2019-04-26T10:20:59.681Z,100358.33
2019-04-26T10:23:29.338Z,100360.36
2019-04-26T10:25:59.017Z,100374.27
2019-04-26T10:28:28.692Z,100360.79
2019-04-26T10:30:58.367Z,100355.02
2019-04-26T10:33:28.041Z,100360.23
2019-04-26T10:35:57.860Z,100362.66
2019-04-26T10:38:27.818Z,100347.20
2019-04-26T10:40:57.512Z,100347.05
2019-04-26T10:43:29.462Z,100353.34
2019-04-26T10:45:59.294Z,100334.83
2019-04-26T10:48:28.972Z,100353.16
2019-04-26T10:50:58.649Z,100356.09
2019-04-26T10:53:50.270Z,100363.80
2019-04-26T10:56:49.635Z,100360.11
2019-04-26T10:59:34.602Z,100369.00
2019-04-26T11:02:06.443Z,100369.69
2019-04-26T11:04:37.366Z,100357.59
2019-04-26T11:07:07.472Z,100363.70
2019-04-26T11:09:37.263Z,100381.41
2019-04-26T11:12:09.485Z,100357.75
2019-04-26T11:14:39.153Z,100368.77
2019-04-26T11:17:11.548Z,100384.59
2019-04-26T11:19:40.570Z,100383.48
2019-04-26T11:22:10.417Z,100384.78
2019-04-26T11:24:40.078Z,100388.86
2019-04-26T11:27:11.168Z,100384.55
2019-04-26T11:29:40.967Z,100385.82
2019-04-26T11:32:11.299Z,100364.79
2019-04-26T11:34:42.919Z,100360.13
2019-04-26T11:37:13.479Z,100383.22
2019-04-26T11:39:43.722Z,100382.61
2019-04-26T11:42:13.364Z,100374.60
2019-04-26T11:44:44.678Z,100358.02
2019-04-26T11:47:14.675Z,100364.12
2019-04-26T11:49:44.346Z,100350.59
2019-04-26T11:52:14.044Z,100366.88
2019-04-26T11:54:43.701Z,100370.05
2019-04-26T11:57:13.675Z,100365.95
2019-04-26T11:59:43.441Z,100371.56
2019-04-26T12:02:16.131Z,100365.85
2019-04-26T12:04:56.250Z,100372.78
2019-04-26T12:07:28.829Z,100348.55
2019-04-26T12:10:00.176Z,100365.13
2019-04-26T12:12:29.846Z,100385.74
2019-04-26T12:14:59.499Z,100386.60
2019-04-26T12:17:31.240Z,100406.42
2019-04-26T12:20:00.550Z,100405.62
2019-04-26T12:22:30.226Z,100410.73
2019-04-26T12:25:03.438Z,100411.14
2019-04-26T12:27:31.943Z,100404.73
2019-04-26T12:30:01.810Z,100400.31
2019-04-26T12:32:31.627Z,100404.95
2019-04-26T12:35:02.296Z,100406.05
2019-04-26T12:37:32.355Z,100421.44
2019-04-26T12:40:02.020Z,100419.33
2019-04-26T12:42:32.928Z,100413.80
2019-04-26T12:45:18.434Z,100407.13
2019-04-26T12:47:51.127Z,100411.73
2019-04-26T12:50:20.790Z,100420.95
2019-04-26T12:52:51.479Z,100424.95
2019-04-26T12:55:22.151Z,100430.30
2019-04-26T12:57:51.828Z,100416.13
2019-04-26T13:00:26.432Z,100402.77
2019-04-26T13:02:56.678Z,100413.53
2019-04-26T13:05:26.338Z,100441.60
2019-04-26T13:07:56.187Z,100417.89
2019-04-26T13:10:53.801Z,100425.70
2019-04-26T13:13:42.554Z,100416.22
2019-04-26T13:16:21.694Z,100438.70
2019-04-26T13:18:50.730Z,100442.72
2019-04-26T13:21:20.386Z,100437.59
2019-04-26T13:23:50.075Z,100433.20
2019-04-26T13:26:19.751Z,100445.69
2019-04-26T13:28:52.402Z,100431.16
2019-04-26T13:31:20.799Z,100433.06
2019-04-26T13:33:50.483Z,100435.81
2019-04-26T13:36:20.333Z,100442.09
2019-04-26T13:38:50.017Z,100432.47
2019-04-26T13:41:19.792Z,100463.84
2019-04-26T13:43:49.469Z,100462.52
2019-04-26T13:46:43.758Z,100470.73
2019-04-26T13:49:19.232Z,100481.66
2019-04-26T13:51:49.163Z,100484.88
2019-04-26T13:54:21.096Z,100486.67
2019-04-26T13:56:50.244Z,100487.92
2019-04-26T13:59:19.927Z,100498.37
2019-04-26T14:01:49.614Z,100498.67
2019-04-26T14:04:19.321Z,100504.44
2019-04-26T14:06:48.974Z,100499.62
2019-04-26T14:09:18.739Z,100488.88
2019-04-26T14:11:48.462Z,100515.85
2019-04-26T14:14:18.160Z,100519.53
2019-04-26T14:16:48.122Z,100527.70
2019-04-26T14:19:17.838Z,100534.15
2019-04-26T14:21:47.573Z,100523.58
2019-04-26T14:24:33.885Z,100523.58
2019-04-26T14:27:10.512Z,100521.79
2019-04-26T14:29:39.257Z,100537.29
2019-04-26T14:32:08.917Z,100547.00
2019-04-26T14:34:40.352Z,100525.16
2019-04-26T14:37:11.259Z,100519.64
2019-04-26T14:39:50.132Z,100532.43
2019-04-26T14:42:12.695Z,100527.24
2019-04-26T14:44:49.212Z,100531.23
2019-04-26T14:47:17.740Z,100523.59
2019-04-26T14:49:46.212Z,100516.44
2019-04-26T14:52:15.876Z,100525.14
2019-04-26T14:54:46.321Z,100510.55
2019-04-26T14:57:24.476Z,100515.29
2019-04-26T14:59:53.155Z,100513.42
2019-04-26T15:02:43.039Z,100498.16
2019-04-26T15:05:22.681Z,100515.75
2019-04-26T15:07:53.783Z,100501.27
2019-04-26T15:10:43.481Z,100506.92
2019-04-26T15:13:17.336Z,100536.95
2019-04-26T15:15:37.654Z,100527.02
2019-04-26T15:18:07.331Z,100551.41
2019-04-26T15:20:37.874Z,100541.64
2019-04-26T15:23:07.613Z,100558.70
2019-04-26T15:25:37.291Z,100581.66
2019-04-26T15:28:11.212Z,100571.30
2019-04-26T15:30:43.318Z,100558.13
2019-04-26T15:33:12.654Z,100583.23
2019-04-26T15:35:42.150Z,100574.75
2019-04-26T15:38:11.959Z,100586.48
2019-04-26T15:41:05.389Z,100586.57
2019-04-26T15:44:00.700Z,100566.77
2019-04-26T15:46:48.556Z,100581.62
2019-04-26T15:49:26.123Z,100582.34
2019-04-26T15:51:56.349Z,100576.03
2019-04-26T15:54:26.886Z,100587.21
2019-04-26T15:56:56.566Z,100591.20
2019-04-26T15:59:26.228Z,100587.65
2019-04-26T16:01:56.387Z,100616.47
2019-04-26T16:04:26.260Z,100631.88
2019-04-26T16:06:56.012Z,100620.83
2019-04-26T16:09:25.673Z,100608.66
2019-04-26T16:11:55.386Z,100605.48
2019-04-26T16:14:31.380Z,100612.73
2019-04-26T16:16:58.236Z,100622.52
2019-04-26T16:19:27.922Z,100642.33
2019-04-26T16:21:57.593Z,100633.32
2019-04-26T16:24:27.981Z,100636.87
2019-04-26T16:26:58.629Z,100630.63
2019-04-26T16:29:38.321Z,100635.72
2019-04-26T16:32:27.026Z,100634.36
2019-04-26T16:34:56.705Z,100644.36
2019-04-26T16:37:26.463Z,100650.47
2019-04-26T16:39:56.117Z,100646.28
2019-04-26T16:42:25.833Z,100643.67
2019-04-26T16:44:55.495Z,100649.30
2019-04-26T16:47:25.162Z,100651.89
2019-04-26T16:49:54.834Z,100663.64
2019-04-26T16:52:24.491Z,100676.10
2019-04-26T16:55:02.392Z,100676.36
2019-04-26T16:57:25.556Z,100679.45
2019-04-26T16:59:59.942Z,100681.63
2019-04-26T17:02:28.190Z,100695.92
2019-04-26T17:05:04.547Z,100687.31
2019-04-26T17:07:29.500Z,100681.34
2019-04-26T17:09:59.916Z,100679.94
2019-04-26T17:12:29.802Z,100692.77
2019-04-26T17:14:59.455Z,100690.05
2019-04-26T17:17:29.129Z,100710.12
2019-04-26T17:19:58.798Z,100701.98
2019-04-26T17:22:44.507Z,100697.38
2019-04-26T17:25:16.980Z,100701.16
2019-04-26T17:27:47.175Z,100690.92
2019-04-26T17:30:21.308Z,100689.88
2019-04-26T17:32:51.520Z,100702.43
2019-04-26T17:35:22.416Z,100708.70
2019-04-26T17:37:52.265Z,100717.02
2019-04-26T17:40:25.251Z,100726.38
2019-04-26T17:42:53.288Z,100707.11
2019-04-26T17:45:23.023Z,100703.27
2019-04-26T17:47:52.986Z,100678.47
2019-04-26T17:50:22.984Z,100675.27
2019-04-26T17:52:52.640Z,100681.33
2019-04-26T17:55:22.397Z,100679.31
2019-04-26T17:57:52.643Z,100669.31
2019-04-26T18:00:27.012Z,100670.70
2019-04-26T18:02:56.912Z,100680.07
2019-04-26T18:05:39.928Z,100687.81
2019-04-26T18:07:59.654Z,100705.03
2019-04-26T18:10:30.591Z,100704.91
2019-04-26T18:13:00.499Z,100696.95
2019-04-26T18:15:30.151Z,100704.84
2019-04-26T18:18:14.476Z,100704.09
2019-04-26T18:21:05.193Z,100719.50
2019-04-26T18:23:35.207Z,100720.41
2019-04-26T18:26:04.963Z,100726.58
2019-04-26T18:28:34.741Z,100714.52
2019-04-26T18:31:06.644Z,100722.38
2019-04-26T18:33:36.329Z,100720.89
2019-04-26T18:36:06.002Z,100729.93
2019-04-26T18:38:35.703Z,100731.92
2019-04-26T18:41:06.583Z,100735.80
2019-04-26T18:43:37.187Z,100742.62
2019-04-26T18:46:17.874Z,100748.52
2019-04-26T18:48:47.536Z,100754.23
2019-04-26T18:51:17.210Z,100755.59
2019-04-26T18:54:02.817Z,100771.77
2019-04-26T18:56:39.557Z,100781.45
2019-04-26T18:59:11.719Z,100789.13
2019-04-26T19:01:41.637Z,100792.44
2019-04-26T19:04:13.571Z,100796.60
2019-04-26T19:06:42.497Z,100818.91
2019-04-26T19:09:15.528Z,100836.41
2019-04-26T19:11:48.711Z,100839.59
2019-04-26T19:14:33.421Z,100834.13
2019-04-26T19:17:12.304Z,100835.02
2019-04-26T19:19:52.603Z,100815.02
2019-04-26T19:22:22.634Z,100799.98
2019-04-26T19:24:54.128Z,100798.77
2019-04-26T19:27:26.545Z,100777.25
2019-04-26T19:29:55.314Z,100749.63
2019-04-26T19:32:25.328Z,100742.63
2019-04-26T19:34:55.154Z,100745.17
2019-04-26T19:37:24.832Z,100761.96
2019-04-26T19:39:54.766Z,100780.36
2019-04-26T19:42:27.131Z,100789.89
2019-04-26T19:45:11.821Z,100796.03
2019-04-26T19:47:52.083Z,100815.70
2019-04-26T19:50:48.489Z,100826.37
2019-04-26T19:53:24.736Z,100847.69
2019-04-26T19:56:02.791Z,100860.53
2019-04-26T19:58:32.931Z,100873.53
2019-04-26T20:01:04.307Z,100906.33
2019-04-26T20:03:34.289Z,100927.65
2019-04-26T20:06:05.038Z,100939.77
2019-04-26T20:08:41.742Z,100944.91
2019-04-26T20:11:06.684Z,100944.31
2019-04-26T20:13:36.338Z,100966.27
2019-04-26T20:16:06.425Z,100973.95
2019-04-26T20:18:38.937Z,100962.30
2019-04-26T20:21:12.689Z,100953.46
2019-04-26T20:23:43.807Z,100930.12
2019-04-26T20:26:11.946Z,100927.98
2019-04-26T20:28:42.353Z,100916.02
2019-04-26T20:31:29.708Z,100922.14
2019-04-26T20:33:59.440Z,100935.55
2019-04-26T20:36:29.198Z,100920.53
2019-04-26T20:38:59.110Z,100923.37
2019-04-26T20:41:28.964Z,100931.47
2019-04-26T20:44:07.346Z,100929.58
2019-04-26T20:46:34.364Z,100924.02
2019-04-26T20:49:05.929Z,100910.39
2019-04-26T20:51:32.851Z,100905.63
2019-04-26T20:54:03.838Z,100898.91
2019-04-26T20:56:33.853Z,100888.23
2019-04-26T20:59:03.751Z,100884.00
2019-04-26T21:01:33.518Z,100884.53
2019-04-26T21:04:03.211Z,100885.93
2019-04-26T21:06:33.896Z,100889.58
2019-04-26T21:09:07.397Z,100893.59
2019-04-26T21:11:38.877Z,100907.81
2019-04-26T21:14:08.810Z,100912.48
2019-04-26T21:16:38.689Z,100918.91
2019-04-26T21:19:08.364Z,100926.47
2019-04-26T21:21:41.975Z,100923.16
2019-04-26T21:24:14.907Z,100923.16
2019-04-26T21:27:15.567Z,100923.42
2019-04-26T21:30:21.190Z,100934.64
2019-04-26T21:33:08.454Z,100931.58
2019-04-26T21:35:44.539Z,100922.41
2019-04-26T21:38:25.562Z,100924.66
2019-04-26T21:41:10.946Z,100919.93
2019-04-26T21:43:38.271Z,100931.37
2019-04-26T21:46:08.546Z,100939.18
2019-04-26T21:48:41.884Z,100950.56
2019-04-26T21:51:14.439Z,100959.16
2019-04-26T21:53:42.154Z,100961.17
2019-04-26T21:56:13.018Z,100958.93
2019-04-26T21:58:43.585Z,100960.59
2019-04-26T22:01:19.411Z,100964.50
2019-04-26T22:03:54.168Z,100972.28
2019-04-26T22:06:25.103Z,100979.57
2019-04-26T22:09:00.028Z,100984.62
2019-04-26T22:11:29.038Z,100992.48
2019-04-26T22:14:13.194Z,100990.59
2019-04-26T22:17:02.191Z,100995.36
2019-04-26T22:20:06.626Z,101001.23
2019-04-26T22:22:52.824Z,101003.18
2019-04-26T22:25:24.879Z,100994.31
2019-04-26T22:28:00.299Z,100984.86
2019-04-26T22:30:29.449Z,100976.78
2019-04-26T22:32:59.238Z,100965.66
2019-04-26T22:35:28.939Z,100956.45
2019-04-26T22:37:58.606Z,100949.80
2019-04-26T22:40:28.287Z,100948.13
2019-04-26T22:43:10.900Z,100952.31
2019-04-26T22:45:54.554Z,100952.04
2019-04-26T22:48:35.427Z,100956.53
2019-04-26T22:51:06.173Z,100952.34
2019-04-26T22:53:35.842Z,100951.77
2019-04-26T22:56:05.593Z,100950.92
2019-04-26T22:58:35.278Z,100952.89
2019-04-26T23:01:06.247Z,100955.13
2019-04-26T23:03:40.897Z,100967.64
2019-04-26T23:06:11.628Z,100967.06
2019-04-26T23:08:39.670Z,100962.87
2019-04-26T23:11:10.728Z,100952.00
2019-04-26T23:13:55.712Z,100957.00
2019-04-26T23:16:35.891Z,100950.57
2019-04-26T23:19:27.411Z,100948.36
2019-04-26T23:21:57.876Z,100939.42
2019-04-26T23:24:27.700Z,100930.44
2019-04-26T23:26:57.365Z,100922.65
2019-04-26T23:29:27.065Z,100920.13
2019-04-26T23:31:56.743Z,100926.25
2019-04-26T23:34:26.433Z,100924.27
2019-04-26T23:36:56.094Z,100918.42
2019-04-26T23:39:25.770Z,100913.70
2019-04-26T23:41:55.506Z,100903.41
2019-04-26T23:44:25.191Z,100902.29
2019-04-26T23:47:01.200Z,100896.17
2019-04-26T23:49:27.198Z,100895.31
2019-04-26T23:51:56.854Z,100884.13
2019-04-26T23:54:28.089Z,100867.99
2019-04-26T23:56:58.921Z,100875.27
2019-04-26T23:59:28.751Z,100868.36
